createdAt,value
2023-04-06T00:00:55.270Z,97092.75
2023-04-06T00:03:24.480Z,97091.53
2023-04-06T00:05:53.981Z,97087.50
2023-04-06T00:08:23.850Z,97092.84
2023-04-06T00:10:52.767Z,97080.00
2023-04-06T00:13:22.112Z,97078.25
2023-04-06T00:15:51.017Z,97080.13
2023-04-06T00:18:21.103Z,97077.22
2023-04-06T00:20:49.844Z,97068.88
2023-04-06T00:23:18.767Z,97068.19
2023-04-06T00:25:47.521Z,97067.97
2023-04-06T00:28:16.538Z,97070.63
2023-04-06T00:30:45.540Z,97062.63
2023-04-06T00:33:14.366Z,97053.66
2023-04-06T00:35:43.231Z,97053.31
2023-04-06T00:38:12.316Z,97046.09
2023-04-06T00:40:41.283Z,97044.47
2023-04-06T00:43:12.997Z,97034.53
2023-04-06T00:45:42.869Z,97039.16
2023-04-06T00:48:11.733Z,97026.50
2023-04-06T00:50:40.492Z,97029.47
2023-04-06T00:53:09.293Z,97035.59
2023-04-06T00:55:38.116Z,97020.59
2023-04-06T00:58:07.309Z,97003.75
2023-04-06T01:00:46.638Z,97006.72
2023-04-06T01:03:19.843Z,97004.09
2023-04-06T01:05:49.436Z,97007.00
2023-04-06T01:08:27.111Z,97009.19
2023-04-06T01:11:07.004Z,96994.13
2023-04-06T01:13:35.864Z,96994.06
2023-04-06T01:16:07.520Z,96984.19
2023-04-06T01:18:58.761Z,96989.00
2023-04-06T01:21:31.965Z,96976.41
2023-04-06T01:24:32.675Z,96977.34
2023-04-06T01:27:20.129Z,96954.38
2023-04-06T01:30:24.413Z,96978.31
2023-04-06T01:32:58.428Z,96972.31
2023-04-06T01:35:38.995Z,96968.28
2023-04-06T01:38:15.526Z,96953.47
2023-04-06T01:40:46.310Z,96957.28
2023-04-06T01:43:15.301Z,96949.19
2023-04-06T01:45:58.995Z,96944.13
2023-04-06T01:48:33.857Z,96939.03
2023-04-06T01:51:08.809Z,96933.16
2023-04-06T01:53:45.602Z,96933.38
2023-04-06T01:56:14.690Z,96926.63
2023-04-06T01:58:49.546Z,96923.81
2023-04-06T02:01:20.767Z,96911.50
2023-04-06T02:03:56.281Z,96910.97
2023-04-06T02:06:26.915Z,96900.38
2023-04-06T02:08:56.007Z,96902.41
2023-04-06T02:11:25.251Z,96897.69
2023-04-06T02:13:58.110Z,96891.97
2023-04-06T02:16:52.075Z,96898.22
2023-04-06T02:19:46.206Z,96896.34
2023-04-06T02:22:15.327Z,96888.31
2023-04-06T02:24:44.145Z,96882.13
2023-04-06T02:27:13.024Z,96874.59
2023-04-06T02:29:42.028Z,96873.00
2023-04-06T02:32:11.109Z,96875.38
2023-04-06T02:34:40.050Z,96855.91
2023-04-06T02:37:08.950Z,96850.06
2023-04-06T02:39:38.845Z,96851.78
2023-04-06T02:42:10.661Z,96843.31
2023-04-06T02:44:39.840Z,96838.16
2023-04-06T02:47:10.825Z,96844.88
2023-04-06T02:49:41.627Z,96836.88
2023-04-06T02:52:11.546Z,96813.41
2023-04-06T02:54:40.396Z,96822.34
2023-04-06T02:57:10.431Z,96826.56
2023-04-06T02:59:43.810Z,96815.16
2023-04-06T03:02:19.587Z,96809.59
2023-04-06T03:04:49.267Z,96806.00
2023-04-06T03:07:27.059Z,96796.91
2023-04-06T03:09:56.832Z,96789.72
2023-04-06T03:12:25.564Z,96790.88
2023-04-06T03:15:12.919Z,96787.03
2023-04-06T03:17:46.570Z,96773.47
2023-04-06T03:20:31.629Z,96761.44
2023-04-06T03:23:00.983Z,96762.91
2023-04-06T03:25:33.194Z,96760.34
2023-04-06T03:28:06.035Z,96770.72
2023-04-06T03:30:39.848Z,96766.84
2023-04-06T03:33:08.944Z,96763.56
2023-04-06T03:35:45.821Z,96750.72
2023-04-06T03:38:15.057Z,96738.25
2023-04-06T03:40:44.325Z,96737.38
2023-04-06T03:43:13.248Z,96724.56
2023-04-06T03:45:42.612Z,96723.72
2023-04-06T03:48:11.563Z,96712.13
2023-04-06T03:50:41.146Z,96714.63
2023-04-06T03:53:10.325Z,96709.22
2023-04-06T03:55:39.188Z,96707.16
2023-04-06T03:58:08.033Z,96697.72
2023-04-06T04:00:37.729Z,96679.47
2023-04-06T04:03:06.928Z,96677.25
2023-04-06T04:05:35.942Z,96683.78
2023-04-06T04:08:05.253Z,96680.19
2023-04-06T04:10:34.779Z,96678.16
2023-04-06T04:13:03.608Z,96666.53
2023-04-06T04:15:32.913Z,96663.59
2023-04-06T04:18:01.917Z,96659.78
2023-04-06T04:20:30.782Z,96651.28
2023-04-06T04:22:59.603Z,96655.41
2023-04-06T04:25:29.474Z,96649.34
2023-04-06T04:27:59.525Z,96642.94
2023-04-06T04:30:28.473Z,96639.25
2023-04-06T04:32:57.282Z,96623.22
2023-04-06T04:35:26.934Z,96637.72
2023-04-06T04:37:56.397Z,96617.50
2023-04-06T04:40:25.321Z,96616.31
2023-04-06T04:43:05.558Z,96612.91
2023-04-06T04:45:36.591Z,96606.19
2023-04-06T04:48:17.650Z,96603.16
2023-04-06T04:50:54.268Z,96582.41
2023-04-06T04:53:26.570Z,96611.59
2023-04-06T04:56:01.638Z,96597.88
2023-04-06T04:58:30.466Z,96604.03
2023-04-06T05:01:02.606Z,96588.38
2023-04-06T05:03:32.682Z,96592.72
2023-04-06T05:06:06.779Z,96574.34
2023-04-06T05:08:38.816Z,96573.28
2023-04-06T05:11:07.897Z,96560.03
2023-04-06T05:13:41.144Z,96566.50
2023-04-06T05:16:15.753Z,96548.22
2023-04-06T05:18:44.953Z,96561.72
2023-04-06T05:21:14.981Z,96569.91
2023-04-06T05:23:57.198Z,96563.72
2023-04-06T05:26:26.873Z,96573.69
2023-04-06T05:29:02.142Z,96555.31
2023-04-06T05:31:34.759Z,96554.75
2023-04-06T05:34:03.735Z,96550.31
2023-04-06T05:36:35.925Z,96547.34
2023-04-06T05:39:10.594Z,96535.19
2023-04-06T05:41:46.854Z,96534.47
2023-04-06T05:44:17.557Z,96508.88
2023-04-06T05:46:51.411Z,96507.94
2023-04-06T05:49:20.526Z,96504.03
2023-04-06T05:51:49.401Z,96492.34
2023-04-06T05:54:18.310Z,96492.28
2023-04-06T05:56:47.611Z,96484.97
2023-04-06T05:59:18.484Z,96493.16
2023-04-06T06:01:49.520Z,96477.38
2023-04-06T06:04:19.847Z,96485.91
2023-04-06T06:06:50.426Z,96482.34
2023-04-06T06:09:22.782Z,96463.91
2023-04-06T06:12:02.241Z,96458.84
2023-04-06T06:14:32.288Z,96455.66
2023-04-06T06:17:01.069Z,96452.06
2023-04-06T06:19:30.783Z,96442.81
2023-04-06T06:22:04.205Z,96436.31
2023-04-06T06:24:35.271Z,96431.66
2023-04-06T06:27:04.202Z,96425.03
2023-04-06T06:29:35.558Z,96419.88
2023-04-06T06:32:04.707Z,96418.91
2023-04-06T06:34:34.230Z,96414.94
2023-04-06T06:37:07.700Z,96404.66
2023-04-06T06:39:39.116Z,96405.66
2023-04-06T06:42:07.997Z,96385.94
2023-04-06T06:44:50.747Z,96387.34
2023-04-06T06:47:19.795Z,96389.75
2023-04-06T06:49:48.690Z,96374.66
2023-04-06T06:52:17.735Z,96371.16
2023-04-06T06:54:46.610Z,96354.78
2023-04-06T06:57:15.372Z,96352.09
2023-04-06T06:59:44.458Z,96337.19
2023-04-06T07:02:14.354Z,96337.41
2023-04-06T07:04:43.844Z,96343.47
2023-04-06T07:07:12.998Z,96335.38
2023-04-06T07:09:42.000Z,96325.69
2023-04-06T07:12:10.932Z,96334.53
2023-04-06T07:14:39.661Z,96311.81
2023-04-06T07:17:08.751Z,96311.38
2023-04-06T07:19:38.258Z,96297.84
2023-04-06T07:22:07.845Z,96301.97
2023-04-06T07:24:36.710Z,96299.00
2023-04-06T07:27:05.541Z,96300.69
2023-04-06T07:29:34.637Z,96284.84
2023-04-06T07:32:03.951Z,96271.78
2023-04-06T07:34:37.846Z,96274.22
2023-04-06T07:37:07.401Z,96262.50
2023-04-06T07:39:37.073Z,96250.34
2023-04-06T07:42:06.932Z,96244.41
2023-04-06T07:44:36.395Z,96243.69
2023-04-06T07:47:06.108Z,96239.00
2023-04-06T07:49:35.372Z,96229.72
2023-04-06T07:52:05.650Z,96230.66
2023-04-06T07:54:35.745Z,96237.22
2023-04-06T07:57:04.698Z,96224.56
2023-04-06T07:59:33.975Z,96220.19
2023-04-06T08:02:03.322Z,96216.13
2023-04-06T08:04:33.157Z,96210.38
2023-04-06T08:07:01.946Z,96208.09
2023-04-06T08:09:30.845Z,96185.75
2023-04-06T08:12:00.391Z,96199.19
2023-04-06T08:14:29.398Z,96187.56
2023-04-06T08:16:58.497Z,96187.19
2023-04-06T08:19:27.248Z,96178.75
2023-04-06T08:21:56.232Z,96173.81
2023-04-06T08:24:25.045Z,96154.94
2023-04-06T08:26:54.629Z,96154.22
2023-04-06T08:29:23.491Z,96161.25
2023-04-06T08:31:52.286Z,96158.03
2023-04-06T08:34:21.373Z,96145.75
2023-04-06T08:36:50.252Z,96141.97
2023-04-06T08:39:19.115Z,96152.91
2023-04-06T08:41:49.520Z,96136.63
2023-04-06T08:44:18.756Z,96128.59
2023-04-06T08:46:48.038Z,96136.94
2023-04-06T08:49:18.213Z,96133.88
2023-04-06T08:51:47.990Z,96122.94
2023-04-06T08:54:17.058Z,96113.34
2023-04-06T08:56:46.581Z,96112.50
2023-04-06T08:59:16.021Z,96109.03
2023-04-06T09:01:47.742Z,96100.50
2023-04-06T09:04:17.330Z,96095.22
2023-04-06T09:06:46.759Z,96089.41
2023-04-06T09:09:16.075Z,96083.75
2023-04-06T09:11:53.488Z,96062.97
2023-04-06T09:14:39.357Z,96079.91
2023-04-06T09:17:08.235Z,96072.75
2023-04-06T09:19:48.096Z,96066.13
2023-04-06T09:22:17.233Z,96070.41
2023-04-06T09:24:52.113Z,96077.84
2023-04-06T09:27:32.982Z,96073.59
2023-04-06T09:30:15.756Z,96070.94
2023-04-06T09:32:53.521Z,96064.22
2023-04-06T09:35:23.660Z,96053.59
2023-04-06T09:37:53.427Z,96047.22
2023-04-06T09:40:23.793Z,96043.47
2023-04-06T09:42:58.907Z,96046.81
2023-04-06T09:45:32.247Z,96038.16
2023-04-06T09:48:02.402Z,96037.38
2023-04-06T09:50:32.237Z,96038.56
2023-04-06T09:53:03.124Z,96028.50
2023-04-06T09:55:45.271Z,96024.91
2023-04-06T09:58:27.791Z,96026.66
2023-04-06T10:01:07.725Z,96023.09
2023-04-06T10:03:52.284Z,96016.97
2023-04-06T10:06:27.015Z,96015.41
2023-04-06T10:08:58.020Z,96014.13
2023-04-06T10:11:27.707Z,96013.00
2023-04-06T10:13:57.255Z,96002.03
2023-04-06T10:16:27.715Z,96003.41
2023-04-06T10:19:03.071Z,96004.50
2023-04-06T10:21:35.227Z,95995.53
2023-04-06T10:24:08.838Z,95987.47
2023-04-06T10:26:38.156Z,95997.28
2023-04-06T10:29:07.429Z,95988.38
2023-04-06T10:31:44.711Z,95982.03
2023-04-06T10:34:14.066Z,95971.47
2023-04-06T10:36:42.833Z,95961.91
2023-04-06T10:39:11.657Z,95953.38
2023-04-06T10:41:49.730Z,95973.94
2023-04-06T10:44:27.764Z,95954.81
2023-04-06T10:47:02.112Z,95952.16
2023-04-06T10:49:30.967Z,95951.88
2023-04-06T10:52:00.205Z,95944.41
2023-04-06T10:54:30.084Z,95932.25
2023-04-06T10:56:58.955Z,95944.31
2023-04-06T10:59:30.712Z,95942.00
2023-04-06T11:02:00.704Z,95934.78
2023-04-06T11:04:29.794Z,95937.91
2023-04-06T11:06:59.637Z,95933.66
2023-04-06T11:09:36.801Z,95930.09
2023-04-06T11:12:06.354Z,95921.50
2023-04-06T11:14:35.096Z,95914.25
2023-04-06T11:17:05.118Z,95912.91
2023-04-06T11:19:35.032Z,95909.97
2023-04-06T11:22:09.878Z,95907.31
2023-04-06T11:24:38.761Z,95898.56
2023-04-06T11:27:08.119Z,95894.53
2023-04-06T11:29:39.594Z,95900.97
2023-04-06T11:32:12.085Z,95883.91
2023-04-06T11:34:42.484Z,95882.69
2023-04-06T11:37:13.163Z,95877.41
2023-04-06T11:39:48.563Z,95865.53
2023-04-06T11:42:24.567Z,95853.03
2023-04-06T11:44:56.702Z,95851.97
2023-04-06T11:47:34.854Z,95849.47
2023-04-06T11:50:11.356Z,95853.25
2023-04-06T11:52:41.920Z,95842.28
2023-04-06T11:55:20.827Z,95835.09
2023-04-06T11:57:50.890Z,95834.97
2023-04-06T12:00:22.308Z,95835.13
2023-04-06T12:02:51.668Z,95821.03
2023-04-06T12:05:20.853Z,95823.09
2023-04-06T12:07:49.647Z,95810.25
2023-04-06T12:10:18.404Z,95818.88
2023-04-06T12:12:47.618Z,95808.53
2023-04-06T12:15:16.702Z,95802.63
2023-04-06T12:17:45.567Z,95808.41
2023-04-06T12:20:25.715Z,95803.88
2023-04-06T12:22:56.279Z,95799.66
2023-04-06T12:25:25.182Z,95801.38
2023-04-06T12:27:54.142Z,95784.94
2023-04-06T12:30:23.222Z,95782.59
2023-04-06T12:32:52.722Z,95774.31
2023-04-06T12:35:22.514Z,95779.78
2023-04-06T12:37:51.497Z,95769.63
2023-04-06T12:40:20.753Z,95761.81
2023-04-06T12:42:49.745Z,95756.34
2023-04-06T12:45:19.216Z,95751.34
2023-04-06T12:47:48.075Z,95753.34
2023-04-06T12:50:16.936Z,95753.34
2023-04-06T12:52:45.919Z,95757.44
2023-04-06T12:55:15.505Z,95757.88
2023-04-06T12:57:44.679Z,95744.94
2023-04-06T13:00:14.615Z,95745.25
2023-04-06T13:02:48.444Z,95741.81
2023-04-06T13:05:20.364Z,95735.09
2023-04-06T13:07:49.188Z,95735.84
2023-04-06T13:10:18.092Z,95734.16
2023-04-06T13:12:47.240Z,95727.56
2023-04-06T13:15:16.712Z,95726.16
2023-04-06T13:17:45.868Z,95715.53
2023-04-06T13:20:14.623Z,95702.53
2023-04-06T13:22:43.410Z,95703.97
2023-04-06T13:25:12.215Z,95713.69
2023-04-06T13:27:41.194Z,95708.22
2023-04-06T13:30:10.948Z,95701.66
2023-04-06T13:32:39.718Z,95697.16
2023-04-06T13:35:09.178Z,95704.03
2023-04-06T13:37:37.906Z,95685.44
2023-04-06T13:40:07.728Z,95684.16
2023-04-06T13:42:45.846Z,95682.47
2023-04-06T13:45:14.863Z,95684.66
2023-04-06T13:47:43.751Z,95682.75
2023-04-06T13:50:12.845Z,95674.94
2023-04-06T13:52:41.686Z,95676.22
2023-04-06T13:55:11.022Z,95679.94
2023-04-06T13:57:40.969Z,95662.16
2023-04-06T14:00:13.569Z,95658.41
2023-04-06T14:02:43.492Z,95659.81
2023-04-06T14:05:12.644Z,95655.44
2023-04-06T14:07:42.326Z,95652.00
2023-04-06T14:10:15.590Z,95641.84
2023-04-06T14:12:46.212Z,95634.50
2023-04-06T14:15:15.245Z,95627.63
2023-04-06T14:17:44.161Z,95629.66
2023-04-06T14:20:15.714Z,95620.75
2023-04-06T14:22:44.582Z,95612.03
2023-04-06T14:25:14.150Z,95610.31
2023-04-06T14:27:43.822Z,95610.31
2023-04-06T14:30:13.241Z,95600.47
2023-04-06T14:32:42.464Z,95591.91
2023-04-06T14:35:12.256Z,95580.06
2023-04-06T14:37:40.985Z,95580.38
2023-04-06T14:40:11.227Z,95580.19
2023-04-06T14:42:40.277Z,95587.22
2023-04-06T14:45:09.464Z,95577.56
2023-04-06T14:47:38.321Z,95576.31
2023-04-06T14:50:07.802Z,95569.91
2023-04-06T14:52:36.604Z,95571.00
2023-04-06T14:55:06.095Z,95551.50
2023-04-06T14:57:35.433Z,95553.06
2023-04-06T15:00:04.931Z,95547.09
2023-04-06T15:02:35.097Z,95539.63
2023-04-06T15:05:05.065Z,95555.22
2023-04-06T15:07:33.908Z,95535.09
2023-04-06T15:10:02.741Z,95536.19
2023-04-06T15:12:33.849Z,95524.34
2023-04-06T15:15:02.651Z,95527.59
2023-04-06T15:17:31.858Z,95510.72
2023-04-06T15:20:00.770Z,95509.03
2023-04-06T15:22:31.262Z,95502.16
2023-04-06T15:25:00.147Z,95492.94
2023-04-06T15:27:29.041Z,95491.06
2023-04-06T15:29:59.962Z,95492.31
2023-04-06T15:32:28.905Z,95490.88
2023-04-06T15:35:01.563Z,95482.47
2023-04-06T15:37:31.683Z,95479.34
2023-04-06T15:40:01.904Z,95469.22
2023-04-06T15:42:32.096Z,95473.41
2023-04-06T15:45:00.846Z,95466.25
2023-04-06T15:47:31.742Z,95466.56
2023-04-06T15:50:00.624Z,95456.88
2023-04-06T15:52:29.623Z,95456.25
2023-04-06T15:54:58.905Z,95452.66
2023-04-06T15:57:27.974Z,95453.16
2023-04-06T15:59:56.885Z,95446.47
2023-04-06T16:02:27.460Z,95448.34
2023-04-06T16:04:57.718Z,95443.53
2023-04-06T16:07:32.229Z,95432.94
2023-04-06T16:10:05.432Z,95440.75
2023-04-06T16:12:34.613Z,95423.28
2023-04-06T16:15:03.459Z,95432.94
2023-04-06T16:17:32.296Z,95423.63
2023-04-06T16:20:01.119Z,95417.22
2023-04-06T16:22:30.110Z,95417.84
2023-04-06T16:24:58.949Z,95411.28
2023-04-06T16:27:28.431Z,95404.44
2023-04-06T16:29:57.192Z,95406.13
2023-04-06T16:32:26.106Z,95405.22
2023-04-06T16:34:55.081Z,95391.66
2023-04-06T16:37:23.986Z,95388.06
2023-04-06T16:39:53.281Z,95390.53
2023-04-06T16:42:22.303Z,95386.16
2023-04-06T16:44:51.100Z,95387.25
2023-04-06T16:47:19.876Z,95379.75
2023-04-06T16:49:48.680Z,95379.75
2023-04-06T16:52:17.437Z,95374.28
2023-04-06T16:54:46.434Z,95366.63
2023-04-06T16:57:15.823Z,95375.34
2023-04-06T16:59:44.640Z,95359.09
2023-04-06T17:02:14.639Z,95353.09
2023-04-06T17:04:43.817Z,95362.28
2023-04-06T17:07:12.783Z,95343.81
2023-04-06T17:09:42.323Z,95343.63
2023-04-06T17:12:11.232Z,95341.91
2023-04-06T17:14:40.246Z,95340.94
2023-04-06T17:17:09.426Z,95344.97
2023-04-06T17:19:38.399Z,95338.69
2023-04-06T17:22:07.336Z,95336.81
2023-04-06T17:24:36.062Z,95331.78
2023-04-06T17:27:05.039Z,95324.28
2023-04-06T17:29:36.856Z,95327.19
2023-04-06T17:32:06.586Z,95318.56
2023-04-06T17:34:35.681Z,95312.75
2023-04-06T17:37:04.562Z,95305.69
2023-04-06T17:39:33.409Z,95312.81
2023-04-06T17:42:05.388Z,95307.97
2023-04-06T17:44:34.625Z,95304.97
2023-04-06T17:47:03.397Z,95297.13
2023-04-06T17:49:32.238Z,95292.94
2023-04-06T17:52:01.118Z,95293.94
2023-04-06T17:54:29.824Z,95278.78
2023-04-06T17:56:59.077Z,95281.13
2023-04-06T17:59:28.186Z,95280.03
2023-04-06T18:01:57.964Z,95277.47
2023-04-06T18:04:27.298Z,95266.50
2023-04-06T18:06:56.550Z,95268.63
2023-04-06T18:11:59.226Z,95253.47
2023-04-06T18:14:27.972Z,95252.06
2023-04-06T18:16:57.213Z,95252.28
2023-04-06T18:19:27.690Z,95255.84
2023-04-06T18:21:56.564Z,95250.06
2023-04-06T18:24:40.453Z,95250.06
2023-04-06T18:27:11.521Z,95240.97
2023-04-06T18:29:41.215Z,95247.31
2023-04-06T18:32:10.139Z,95238.69
2023-04-06T18:34:39.999Z,95230.84
2023-04-06T18:37:08.871Z,95228.19
2023-04-06T18:39:37.763Z,95223.19
2023-04-06T18:42:06.591Z,95230.03
2023-04-06T18:44:35.371Z,95220.84
2023-04-06T18:47:04.295Z,95208.22
2023-04-06T18:49:33.968Z,95221.97
2023-04-06T18:52:03.753Z,95214.63
2023-04-06T18:54:32.556Z,95213.88
2023-04-06T18:57:02.332Z,95208.53
2023-04-06T18:59:31.210Z,95208.53
2023-04-06T19:02:00.620Z,95208.53
2023-04-06T19:04:31.196Z,95202.00
2023-04-06T19:07:01.294Z,95200.78
2023-04-06T19:09:30.049Z,95194.78
2023-04-06T19:11:58.895Z,95196.13
2023-04-06T19:14:32.401Z,95201.91
2023-04-06T19:17:01.287Z,95196.25
2023-04-06T19:19:30.240Z,95188.94
2023-04-06T19:22:02.042Z,95190.50
2023-04-06T19:24:30.814Z,95189.06
2023-04-06T19:26:59.927Z,95187.50
2023-04-06T19:29:28.718Z,95187.81
2023-04-06T19:31:57.448Z,95176.09
2023-04-06T19:34:26.517Z,95184.97
2023-04-06T19:36:55.821Z,95177.75
2023-04-06T19:39:24.649Z,95174.31
2023-04-06T19:41:53.538Z,95174.75
2023-04-06T19:44:22.359Z,95171.13
2023-04-06T19:46:51.275Z,95168.53
2023-04-06T19:49:20.286Z,95160.69
2023-04-06T19:51:49.037Z,95161.25
2023-04-06T19:54:17.776Z,95163.25
2023-04-06T19:56:48.513Z,95157.25
2023-04-06T19:59:18.569Z,95157.34
2023-04-06T20:01:48.038Z,95150.91
2023-04-06T20:04:17.731Z,95164.47
2023-04-06T20:06:46.971Z,95149.25
2023-04-06T20:09:17.510Z,95152.47
2023-04-06T20:11:46.420Z,95150.25
2023-04-06T20:14:16.098Z,95156.47
2023-04-06T20:16:44.906Z,95149.25
2023-04-06T20:19:13.657Z,95138.13
2023-04-06T20:21:44.385Z,95136.13
2023-04-06T20:24:13.378Z,95143.88
2023-04-06T20:26:42.448Z,95141.69
2023-04-06T20:29:11.360Z,95133.88
2023-04-06T20:31:40.239Z,95136.63
2023-04-06T20:34:08.989Z,95128.00
2023-04-06T20:36:37.836Z,95126.63
2023-04-06T20:39:07.623Z,95126.03
2023-04-06T20:41:36.557Z,95118.59
2023-04-06T20:44:05.384Z,95127.56
2023-04-06T20:46:34.082Z,95125.34
2023-04-06T20:49:04.274Z,95113.31
2023-04-06T20:51:33.389Z,95114.94
2023-04-06T20:54:02.353Z,95107.03
2023-04-06T20:56:31.391Z,95112.47
2023-04-06T20:59:01.127Z,95115.50
2023-04-06T21:01:31.456Z,95107.41
2023-04-06T21:04:02.584Z,95109.38
2023-04-06T21:06:33.036Z,95101.38
2023-04-06T21:09:02.305Z,95097.94
2023-04-06T21:11:42.871Z,95097.09
2023-04-06T21:14:11.657Z,95090.97
2023-04-06T21:16:40.474Z,95094.06
2023-04-06T21:19:09.341Z,95095.38
2023-04-06T21:21:38.102Z,95092.28
2023-04-06T21:24:07.147Z,95095.28
2023-04-06T21:26:37.362Z,95090.31
2023-04-06T21:29:06.310Z,95083.75
2023-04-06T21:31:42.347Z,95083.59
2023-04-06T21:34:15.355Z,95082.63
2023-04-06T21:36:44.335Z,95077.19
2023-04-06T21:39:13.225Z,95082.50
2023-04-06T21:41:42.160Z,95092.28
2023-04-06T21:44:10.938Z,95075.91
2023-04-06T21:46:39.797Z,95081.22
2023-04-06T21:49:08.620Z,95075.38
2023-04-06T21:51:37.594Z,95078.28
2023-04-06T21:54:06.388Z,95075.50
2023-04-06T21:56:35.124Z,95065.97
2023-04-06T21:59:03.929Z,95065.44
2023-04-06T22:01:33.730Z,95073.75
2023-04-06T22:04:03.211Z,95064.47
2023-04-06T22:06:32.248Z,95065.13
2023-04-06T22:09:02.448Z,95061.72
2023-04-06T22:11:31.390Z,95063.94
2023-04-06T22:14:00.570Z,95050.44
2023-04-06T22:16:29.525Z,95053.78
2023-04-06T22:18:58.610Z,95044.81
2023-04-06T22:21:27.924Z,95047.47
2023-04-06T22:23:56.814Z,95041.28
2023-04-06T22:26:25.659Z,95046.16
2023-04-06T22:28:54.536Z,95042.53
2023-04-06T22:31:23.372Z,95034.09
2023-04-06T22:33:52.394Z,95037.66
2023-04-06T22:36:21.592Z,95039.44
2023-04-06T22:38:51.407Z,95036.16
2023-04-06T22:41:20.225Z,95026.31
2023-04-06T22:43:48.918Z,95032.22
2023-04-06T22:46:17.933Z,95024.91
2023-04-06T22:48:46.797Z,95037.41
2023-04-06T22:51:15.581Z,95028.22
2023-04-06T22:53:44.441Z,95027.75
2023-04-06T22:56:13.308Z,95019.69
2023-04-06T22:58:42.140Z,95017.69
2023-04-06T23:01:12.711Z,95019.88
2023-04-06T23:03:42.131Z,95025.31
2023-04-06T23:06:11.051Z,95019.22
2023-04-06T23:08:39.854Z,95023.88
2023-04-06T23:11:08.608Z,95019.34
2023-04-06T23:13:37.344Z,95024.78
2023-04-06T23:16:08.624Z,95016.16
2023-04-06T23:18:37.394Z,95018.25
2023-04-06T23:21:09.351Z,95009.28
2023-04-06T23:23:38.184Z,95014.03
2023-04-06T23:26:06.989Z,95009.75
2023-04-06T23:28:35.743Z,95004.31
2023-04-06T23:31:04.576Z,95001.97
2023-04-06T23:33:33.434Z,95004.63
2023-04-06T23:36:02.456Z,94995.28
2023-04-06T23:38:31.561Z,95003.09
2023-04-06T23:41:00.280Z,94999.16
2023-04-06T23:43:29.083Z,94993.97
2023-04-06T23:45:57.897Z,94989.97
2023-04-06T23:48:26.848Z,94986.97
2023-04-06T23:50:55.764Z,94990.94
2023-04-06T23:53:24.558Z,94995.91
2023-04-06T23:55:53.363Z,94995.41
2023-04-06T23:58:22.161Z,94994.00
